Latest Weather Observations for Kalgoorlie-Boulder

IDW60801

Issued at 9:35 pm WST Wednesday 17 September 2014 (issued every 30 minutes, with the page automatically refreshed every 10 minutes)

About weather observations | Map of weather stations | Latest weather observations for WA | Other Formats
Station Details ID: 012038 Name: KALGOORLIE-BOULDER AIRPORT Lat: -30.78 Lon: 121.45 Height: 365.3 m
Data from the previous 72 hours. | See also: Recent months at Kalgoorlie-Boulder
Date/Time
WST
Temp
°C
App
Temp
°C
Dew
Point
Rel
Hum
%
Delta-T
°C
Wind Press
QNH
hPa
Press
MSL
hPa
Rain
since 9 am
mm
Dir
 
Spd
km/h
Gust
km/h
Spd
kts
Gust
kts
17/09:30pm 21.6 15.3 -1.0 22 10.1 E 22 39 12 21 1016.4 - 0.0
17/09:00pm 22.3 15.2 -1.5 20 10.6 ENE 26 37 14 20 1016.7 1016.2 0.0
17/08:30pm 22.3 16.0 -1.1 21 10.5 E 22 32 12 17 1017.1 - 0.0
17/08:00pm 22.6 16.8 -0.4 21 10.5 E 20 30 11 16 1017.2 - 0.0
17/07:30pm 21.9 16.3 0.0 23 10.0 E 19 24 10 13 1016.6 - 0.0
17/07:00pm 21.4 16.7 0.9 25 9.5 ESE 15 20 8 11 1016.2 - 0.0
17/06:30pm 22.5 17.4 0.9 24 10.1 E 17 19 9 10 1015.8 - 0.0
17/06:00pm 24.3 19.2 0.5 21 11.2 E 17 22 9 12 1015.6 1015.1 0.0
17/05:30pm 24.8 19.6 0.4 20 11.5 ENE 17 24 9 13 1015.4 - 0.0
17/05:00pm 25.2 19.5 0.5 20 11.7 ENE 20 33 11 18 1015.2 - 0.0
17/04:30pm 26.0 19.2 0.7 19 12.1 ENE 26 35 14 19 1014.7 - 0.0
17/04:00pm 25.5 20.0 0.8 20 11.8 E 19 33 10 18 1015.0 - 0.0
17/03:30pm 25.0 18.5 0.5 20 11.6 E 24 28 13 15 1014.8 - 0.0
17/03:00pm 25.3 18.5 0.7 20 11.7 E 26 35 14 19 1015.2 1014.6 0.0
17/02:30pm 25.0 19.6 1.2 21 11.4 ENE 19 30 10 16 1015.7 - 0.0
17/02:00pm 24.7 18.3 0.9 21 11.3 ENE 24 30 13 16 1015.7 - 0.0
17/01:30pm 23.7 18.3 2.2 24 10.4 ENE 20 30 11 16 1016.5 - 0.0
17/01:00pm 23.9 19.0 2.2 24 10.5 NE 17 26 9 14 1017.1 - 0.0
17/12:30pm 23.7 18.2 2.1 24 10.4 NE 20 28 11 15 1017.7 - 0.0
17/12:00pm 22.2 16.9 3.0 28 9.3 NE 20 28 11 15 1018.4 1017.9 0.0
17/11:30am 22.4 18.1 3.1 28 9.4 NE 15 28 8 15 1019.0 - 0.0
17/11:00am 20.5 15.8 2.9 31 8.4 NNE 17 24 9 13 1019.5 - 0.0
17/10:30am 19.9 15.6 3.5 34 7.9 NNE 15 24 8 13 1020.0 - 0.0
17/10:00am 18.5 14.2 3.3 36 7.2 NE 15 24 8 13 1020.0 - 0.0
17/09:30am 17.8 12.6 3.4 38 6.8 NE 20 32 11 17 1020.3 - 0.0
17/09:00am 18.8 13.2 3.2 35 7.4 NE 22 33 12 18 1020.2 1019.7 0.0
17/08:30am 17.5 12.2 2.9 37 6.8 NE 20 32 11 17 1020.3 - 0.0
17/08:00am 15.9 10.8 3.2 42 5.9 ENE 19 26 10 14 1020.1 - 0.0
17/07:30am 14.8 9.7 3.3 46 5.3 ENE 19 28 10 15 1019.9 - 0.0
17/07:00am 13.3 8.6 3.2 50 4.6 ENE 17 24 9 13 1019.8 - 0.0
17/06:30am 12.7 8.4 3.2 52 4.3 ENE 15 20 8 11 1019.6 - 0.0
17/06:00am 12.5 8.1 2.9 52 4.3 ENE 15 24 8 13 1019.3 1018.8 0.0
17/05:30am 12.7 7.5 2.6 50 4.5 E 19 32 10 17 1019.1 - 0.0
17/05:00am 12.5 7.7 2.6 51 4.4 E 17 26 9 14 1018.8 - 0.0
17/04:30am 12.6 8.2 2.8 51 4.4 E 15 24 8 13 1018.6 - 0.0
17/04:00am 11.6 7.6 3.1 56 3.8 E 13 20 7 11 1018.4 - 0.0
17/03:30am 11.5 7.6 3.5 58 3.6 ESE 13 17 7 9 1018.3 - 0.0
17/03:00am 12.3 7.6 3.2 54 4.1 SE 17 19 9 10 1018.2 1017.7 0.0
17/02:30am 12.7 8.8 3.5 53 4.2 ESE 13 17 7 9 1018.1 - 0.0
17/02:00am 13.3 9.4 3.2 50 4.6 SE 13 19 7 10 1018.3 - 0.0
17/01:30am 13.4 9.9 3.3 50 4.6 SE 11 15 6 8 1018.5 - 0.0
17/01:00am 14.4 11.2 3.3 47 5.1 ESE 9 13 5 7 1018.5 - 0.0
17/12:30am 16.5 12.4 2.3 38 6.5 E 13 20 7 11 1018.6 - 0.0
17/12:00am 17.3 12.4 2.3 36 6.9 ENE 17 24 9 13 1018.8 1018.3 0.0
 
Date/Time
WST
Temp
°C
App
Temp
°C
Dew
Point
Rel
Hum
%
Delta-T
°C
Wind Press
QNH
hPa
Press
MSL
hPa
Rain
since 9 am
mm
Dir
 
Spd
km/h
Gust
km/h
Spd
kts
Gust
kts
16/11:30pm 17.0 12.9 2.5 37 6.7 ENE 13 19 7 10 1019.0 - 0.0
16/11:00pm 16.6 13.1 3.6 42 6.1 ENE 11 15 6 8 1019.4 - 0.0
16/10:30pm 16.5 13.9 4.1 43 5.9 NE 7 13 4 7 1019.3 - 0.0
16/10:00pm 17.0 13.6 4.0 42 6.2 ENE 11 15 6 8 1019.5 - 0.0
16/09:30pm 17.3 14.2 3.5 39 6.5 NE 9 15 5 8 1019.6 - 0.0
16/09:00pm 17.7 14.3 3.9 40 6.6 NE 11 15 6 8 1019.5 1019.0 0.0
16/08:30pm 18.8 14.1 3.2 35 7.4 ENE 17 26 9 14 1019.4 - 0.0
16/08:00pm 19.5 14.4 2.8 33 7.9 ENE 19 28 10 15 1019.0 - 0.0
16/07:30pm 19.8 15.1 3.0 33 8.0 ENE 17 28 9 15 1018.8 - 0.0
16/07:00pm 20.6 16.1 2.1 29 8.7 ENE 15 20 8 11 1018.7 - 0.0
16/06:30pm 20.6 16.5 2.5 30 8.6 ENE 13 20 7 11 1018.5 - 0.0
16/06:00pm 20.9 16.0 2.0 28 8.9 ENE 17 24 9 13 1018.1 1017.6 0.0
16/05:30pm 21.1 16.2 2.1 28 9.0 E 17 26 9 14 1017.9 - 0.0
16/05:00pm 21.6 16.4 2.3 28 9.2 E 19 22 10 12 1017.9 - 0.0
16/04:30pm 21.7 17.4 3.1 29 9.0 E 15 20 8 11 1017.8 - 0.0
16/04:00pm 22.0 17.6 2.7 28 9.3 E 15 22 8 12 1017.6 - 0.0
16/03:30pm 22.1 18.5 3.2 29 9.2 E 11 19 6 10 1017.6 - 0.0
16/03:00pm 22.9 18.9 2.7 26 9.8 ENE 13 17 7 9 1018.1 1017.6 0.0
16/02:30pm 22.0 18.1 3.3 29 9.1 NE 13 19 7 10 1018.2 - 0.0
16/02:00pm 22.6 18.6 2.8 27 9.6 ENE 13 24 7 13 1018.1 - 0.0
16/01:30pm 22.0 17.7 3.3 29 9.1 ENE 15 24 8 13 1018.2 - 0.0
16/01:00pm 21.4 17.1 3.2 30 8.8 E 15 24 8 13 1018.4 - 0.0
16/12:30pm 20.0 14.8 3.7 34 7.9 E 20 26 11 14 1018.9 - 0.0
16/12:00pm 19.3 15.5 4.0 36 7.4 E 13 20 7 11 1019.8 1019.3 0.0
16/11:30am 18.7 15.1 4.8 40 6.8 E 13 24 7 13 1020.5 - 0.0
16/11:00am 17.5 12.7 4.7 42 6.2 ESE 19 28 10 15 1020.3 - 0.0
16/10:30am 16.7 11.9 4.4 44 5.9 E 19 24 10 13 1020.2 - 0.0
16/10:00am 15.3 10.3 4.6 49 5.1 E 20 26 11 14 1020.9 - 0.0
16/09:30am 14.0 9.2 4.4 52 4.5 E 19 26 10 14 1021.5 - 0.0
16/09:00am 14.1 8.3 4.3 51 4.6 ESE 24 30 13 16 1021.4 1020.9 0.0
16/08:30am 12.5 7.6 4.0 56 3.9 E 19 24 10 13 1022.3 - 0.0
16/08:00am 11.5 5.9 3.5 58 3.6 ESE 22 26 12 14 1022.3 - 0.0
16/07:30am 10.7 6.0 3.0 59 3.4 SE 17 26 9 14 1022.0 - 0.0
16/07:00am 10.3 5.9 2.8 59 3.3 SE 15 20 8 11 1021.7 - 0.0
16/06:30am 9.7 6.1 2.8 62 3.0 SE 11 15 6 8 1021.4 - 0.0
16/06:00am 9.4 4.6 2.7 63 2.9 ESE 17 20 9 11 1020.1 1019.6 0.0
16/05:30am 9.4 4.3 3.0 64 2.8 ESE 19 22 10 12 1019.9 - 0.0
16/05:00am 9.6 4.8 2.7 62 3.0 ESE 17 22 9 12 1020.2 - 0.0
16/04:30am 9.7 5.6 2.0 58 3.3 ESE 13 17 7 9 1020.1 - 0.0
16/04:00am 10.5 5.8 1.0 52 4.0 SE 15 20 8 11 1019.8 - 0.0
16/03:30am 10.6 5.5 0.9 51 4.1 SE 17 20 9 11 1019.4 - 0.0
16/03:00am 10.3 6.0 1.3 53 3.8 ESE 13 17 7 9 1019.6 1019.1 0.0
16/02:30am 11.5 6.4 0.9 48 4.5 SE 17 20 9 11 1019.6 - 0.0
16/02:00am 12.1 7.0 0.8 46 4.8 SE 17 22 9 12 1019.9 - 0.0
16/01:30am 12.1 7.8 1.2 47 4.7 SE 13 20 7 11 1020.0 - 0.0
16/01:00am 13.2 9.2 0.3 41 5.5 SSE 11 13 6 7 1020.5 - 0.0
16/12:30am 12.6 9.1 1.0 45 5.0 S 9 11 5 6 1020.7 - 0.0
16/12:00am 13.7 10.5 1.0 42 5.5 SSE 7 11 4 6 1020.7 1020.2 0.0
 
Date/Time
WST
Temp
°C
App
Temp
°C
Dew
Point
Rel
Hum
%
Delta-T
°C
Wind Press
QNH
hPa
Press
MSL
hPa
Rain
since 9 am
mm
Dir
 
Spd
km/h
Gust
km/h
Spd
kts
Gust
kts
15/11:30pm 14.6 10.2 0.5 38 6.1 SE 13 15 7 8 1020.7 - 0.0
15/11:00pm 14.8 10.5 0.8 38 6.1 SE 13 15 7 8 1020.8 - 0.0
15/10:30pm 14.0 11.1 2.7 46 5.1 E 7 9 4 5 1020.8 - 0.0
15/10:00pm 14.2 10.9 2.7 46 5.2 SE 9 9 5 5 1020.9 - 0.0
15/09:30pm 15.5 11.2 1.0 37 6.4 SE 13 15 7 8 1021.1 - 0.0
15/09:00pm 16.1 12.1 0.7 35 6.8 SE 11 13 6 7 1021.1 1020.6 0.0
15/08:30pm 16.4 12.7 0.1 33 7.1 SE 9 11 5 6 1021.2 - 0.0
15/08:00pm 16.5 12.9 0.7 34 7.0 SE 9 9 5 5 1021.2 - 0.0
15/07:30pm 17.4 13.4 0.2 31 7.6 SE 11 13 6 7 1021.1 - 0.0
15/07:00pm 18.8 13.9 -0.5 27 8.5 SE 15 19 8 10 1020.9 - 0.0
15/06:30pm 19.6 14.7 -0.8 25 9.0 SE 15 20 8 11 1020.7 - 0.0
15/06:00pm 20.7 15.4 -0.9 23 9.6 SE 17 20 9 11 1020.3 1019.9 0.0
15/05:30pm 21.9 17.4 -0.4 22 10.1 SE 13 19 7 10 1020.0 - 0.0
15/05:00pm 22.9 18.2 -1.9 19 11.0 ESE 13 17 7 9 1019.7 - 0.0
15/04:30pm 23.6 21.2 -0.3 20 11.0 S 2 9 1 5 1019.7 - 0.0
15/04:00pm 23.7 19.8 -1.7 18 11.4 ESE 9 13 5 7 1019.6 - 0.0
15/03:30pm 23.6 19.6 -2.0 18 11.4 E 9 17 5 9 1019.7 - 0.0
15/03:00pm 24.1 20.0 0.0 20 11.2 ENE 11 17 6 9 1019.9 1019.4 0.0
15/02:30pm 23.4 19.7 0.0 21 10.8 SSE 9 13 5 7 1020.2 - 0.0
15/02:00pm 22.8 18.3 -0.1 22 10.5 E 13 20 7 11 1020.7 - 0.0
15/01:30pm 23.2 18.2 -1.2 19 11.0 E 15 24 8 13 1020.9 - 0.0
15/01:00pm 23.3 18.5 0.2 21 10.7 E 15 22 8 12 1021.2 - 0.0
15/12:30pm 22.0 17.1 -0.2 23 10.1 E 15 24 8 13 1021.5 - 0.0
15/12:00pm 21.8 17.7 0.1 23 9.9 ESE 11 22 6 12 1022.0 1021.5 0.0
15/11:30am 21.2 17.1 0.0 24 9.6 ENE 11 19 6 10 1022.6 - 0.0
15/11:00am 20.5 16.1 0.5 26 9.1 E 13 19 7 10 1023.4 - 0.0
15/10:30am 20.0 15.9 2.0 30 8.4 ENE 13 24 7 13 1023.8 - 0.0
15/10:00am 18.9 14.3 1.7 31 7.9 ENE 15 20 8 11 1023.9 - 0.0
15/09:30am 18.3 14.2 2.3 34 7.4 NE 13 17 7 9 1023.9 - 0.0
15/09:00am 16.9 13.2 2.6 38 6.6 NE 11 17 6 9 1024.3 1023.8 0.0
15/08:30am 14.7 11.1 2.8 44 5.4 ESE 11 17 6 9 1024.6 - 0.0
15/08:00am 13.7 10.5 3.1 48 4.8 E 9 13 5 7 1024.4 - 0.0
15/07:30am 12.1 8.5 3.2 54 4.0 ESE 11 15 6 8 1024.2 - 0.0
15/07:00am 10.7 7.2 3.3 60 3.3 ESE 11 13 6 7 1023.8 - 0.0
15/06:30am 8.8 5.9 2.8 66 2.6 ESE 7 9 4 5 1023.6 - 0.0
15/06:00am 7.7 4.3 2.0 67 2.4 SSE 9 11 5 6 1023.2 1022.8 0.0
15/05:30am 7.5 4.0 1.4 65 2.5 SE 9 13 5 7 1023.1 - 0.0
15/05:00am 7.4 3.1 0.7 62 2.7 ESE 13 15 7 8 1023.1 - 0.0
15/04:30am 8.6 3.5 0.8 58 3.2 SE 17 20 9 11 1023.0 - 0.0
15/04:00am 7.9 4.7 0.5 59 3.0 SE 7 11 4 6 1023.0 - 0.0
15/03:30am 7.7 4.3 -0.7 55 3.3 SSE 7 9 4 5 1022.9 - 0.0
15/03:00am 8.2 4.7 -1.3 51 3.7 S 7 9 4 5 1022.6 1022.1 0.0
15/02:30am 8.8 5.4 -1.8 47 4.1 S 6 9 3 5 1022.6 - 0.0
15/02:00am 9.9 5.4 -2.9 40 4.9 SSE 11 15 6 8 1022.4 - 0.0
15/01:30am 9.8 6.5 -1.0 47 4.3 SSE 6 7 3 4 1022.4 - 0.0
15/01:00am 11.3 8.7 -1.8 40 5.2 SSE 2 6 1 3 1022.5 - 0.0
15/12:30am 11.4 8.1 -0.9 42 5.0 E 6 7 3 4 1022.4 - 0.0
15/12:00am 11.0 7.7 -1.2 42 4.9 ENE 6 7 3 4 1022.5 1022.0 0.0
 
Date/Time
WST
Temp
°C
App
Temp
°C
Dew
Point
Rel
Hum
%
Delta-T
°C
Wind Press
QNH
hPa
Press
MSL
hPa
Rain
since 9 am
mm
Dir
 
Spd
km/h
Gust
km/h
Spd
kts
Gust
kts
14/11:30pm 11.0 8.9 -0.8 44 4.8 CALM 0 0 0 0 1022.6 - 0.0
14/11:00pm 11.7 9.6 -1.1 41 5.2 CALM 0 0 0 0 1022.7 - 0.0
14/10:30pm 12.1 8.9 -0.5 42 5.2 SE 6 9 3 5 1022.9 - 0.0
14/10:00pm 13.2 9.2 -2.6 33 6.3 SE 9 11 5 6 1022.9 - 0.0

Other Formats:

Comma delimited format used in spreadsheet applications
http://www.bom.gov.au/fwo/IDW60801/IDW60801.94637.axf

JavaScript Object Notation format (JSON) in row-major order
http://www.bom.gov.au/fwo/IDW60801/IDW60801.94637.json